sensor_id;sensor_type;location;lat;lon;timestamp;P1;durP1;ratioP1;P2;durP2;ratioP2
69327;SDS011;56472;52.114;5.492;2022-07-23T00:00:19;4.68;;;2.55;;
69327;SDS011;56472;52.114;5.492;2022-07-23T00:02:47;2.70;;;2.50;;
69327;SDS011;56472;52.114;5.492;2022-07-23T00:05:14;3.60;;;2.65;;
69327;SDS011;56472;52.114;5.492;2022-07-23T00:07:42;2.67;;;2.47;;
69327;SDS011;56472;52.114;5.492;2022-07-23T00:10:09;9.43;;;2.80;;
69327;SDS011;56472;52.114;5.492;2022-07-23T00:12:36;6.05;;;2.28;;
69327;SDS011;56472;52.114;5.492;2022-07-23T00:15:17;4.82;;;2.85;;
69327;SDS011;56472;52.114;5.492;2022-07-23T00:17:44;4.30;;;2.55;;
69327;SDS011;56472;52.114;5.492;2022-07-23T00:20:11;3.15;;;2.85;;
69327;SDS011;56472;52.114;5.492;2022-07-23T00:22:53;6.88;;;2.90;;
69327;SDS011;56472;52.114;5.492;2022-07-23T00:25:21;8.63;;;2.75;;
69327;SDS011;56472;52.114;5.492;2022-07-23T00:27:56;2.70;;;2.55;;
69327;SDS011;56472;52.114;5.492;2022-07-23T00:30:23;7.35;;;2.42;;
69327;SDS011;56472;52.114;5.492;2022-07-23T00:32:54;2.92;;;2.60;;
69327;SDS011;56472;52.114;5.492;2022-07-23T00:35:27;2.75;;;2.20;;
69327;SDS011;56472;52.114;5.492;2022-07-23T00:37:55;0.82;;;0.82;;
69327;SDS011;56472;52.114;5.492;2022-07-23T00:40:23;3.25;;;1.05;;
69327;SDS011;56472;52.114;5.492;2022-07-23T00:42:50;4.75;;;1.90;;
69327;SDS011;56472;52.114;5.492;2022-07-23T00:45:18;2.13;;;1.98;;
69327;SDS011;56472;52.114;5.492;2022-07-23T00:47:46;3.38;;;2.55;;
69327;SDS011;56472;52.114;5.492;2022-07-23T00:50:13;4.35;;;2.53;;
69327;SDS011;56472;52.114;5.492;2022-07-23T00:52:41;3.95;;;2.80;;
69327;SDS011;56472;52.114;5.492;2022-07-23T00:55:09;5.25;;;3.22;;
69327;SDS011;56472;52.114;5.492;2022-07-23T00:57:37;5.00;;;2.63;;
69327;SDS011;56472;52.114;5.492;2022-07-23T01:00:05;4.00;;;3.03;;
69327;SDS011;56472;52.114;5.492;2022-07-23T01:02:33;3.50;;;2.72;;
69327;SDS011;56472;52.114;5.492;2022-07-23T01:05:00;3.70;;;2.97;;
69327;SDS011;56472;52.114;5.492;2022-07-23T01:07:28;9.23;;;3.33;;
69327;SDS011;56472;52.114;5.492;2022-07-23T01:09:55;3.33;;;2.97;;
69327;SDS011;56472;52.114;5.492;2022-07-23T01:12:23;4.53;;;3.30;;
69327;SDS011;56472;52.114;5.492;2022-07-23T01:14:56;3.60;;;3.03;;
69327;SDS011;56472;52.114;5.492;2022-07-23T01:17:24;4.35;;;2.85;;
69327;SDS011;56472;52.114;5.492;2022-07-23T01:19:52;12.15;;;2.60;;
69327;SDS011;56472;52.114;5.492;2022-07-23T01:22:19;7.57;;;3.33;;
69327;SDS011;56472;52.114;5.492;2022-07-23T01:24:47;7.85;;;3.25;;
69327;SDS011;56472;52.114;5.492;2022-07-23T01:27:20;3.08;;;2.80;;
69327;SDS011;56472;52.114;5.492;2022-07-23T01:29:50;5.28;;;2.90;;
69327;SDS011;56472;52.114;5.492;2022-07-23T01:32:19;3.00;;;2.78;;
69327;SDS011;56472;52.114;5.492;2022-07-23T01:34:47;3.58;;;2.83;;
69327;SDS011;56472;52.114;5.492;2022-07-23T01:37:14;3.05;;;2.78;;
69327;SDS011;56472;52.114;5.492;2022-07-23T01:39:43;5.50;;;3.22;;
69327;SDS011;56472;52.114;5.492;2022-07-23T01:42:10;3.60;;;3.35;;
69327;SDS011;56472;52.114;5.492;2022-07-23T01:44:39;3.83;;;3.30;;
69327;SDS011;56472;52.114;5.492;2022-07-23T01:47:11;4.82;;;2.88;;
69327;SDS011;56472;52.114;5.492;2022-07-23T01:49:39;4.28;;;2.63;;
69327;SDS011;56472;52.114;5.492;2022-07-23T01:52:26;4.68;;;3.75;;
69327;SDS011;56472;52.114;5.492;2022-07-23T01:54:53;6.65;;;2.72;;
69327;SDS011;56472;52.114;5.492;2022-07-23T01:57:21;3.20;;;2.00;;
69327;SDS011;56472;52.114;5.492;2022-07-23T01:59:48;3.10;;;1.90;;
69327;SDS011;56472;52.114;5.492;2022-07-23T02:02:18;3.83;;;1.65;;
69327;SDS011;56472;52.114;5.492;2022-07-23T02:04:46;1.35;;;1.30;;
69327;SDS011;56472;52.114;5.492;2022-07-23T02:07:17;2.67;;;1.02;;
69327;SDS011;56472;52.114;5.492;2022-07-23T02:09:44;3.22;;;0.50;;
69327;SDS011;56472;52.114;5.492;2022-07-23T02:12:11;0.57;;;0.40;;
69327;SDS011;56472;52.114;5.492;2022-07-23T02:14:39;2.92;;;0.60;;
69327;SDS011;56472;52.114;5.492;2022-07-23T02:17:07;1.95;;;1.85;;
69327;SDS011;56472;52.114;5.492;2022-07-23T02:19:34;5.65;;;1.88;;
69327;SDS011;56472;52.114;5.492;2022-07-23T02:22:02;5.30;;;1.90;;
69327;SDS011;56472;52.114;5.492;2022-07-23T02:24:29;4.18;;;1.70;;
69327;SDS011;56472;52.114;5.492;2022-07-23T02:26:56;14.85;;;1.25;;
69327;SDS011;56472;52.114;5.492;2022-07-23T02:29:24;53.33;;;1.67;;
69327;SDS011;56472;52.114;5.492;2022-07-23T02:31:53;3.72;;;1.20;;
69327;SDS011;56472;52.114;5.492;2022-07-23T02:34:21;0.98;;;0.98;;
69327;SDS011;56472;52.114;5.492;2022-07-23T02:36:49;4.05;;;1.77;;
69327;SDS011;56472;52.114;5.492;2022-07-23T02:39:16;2.10;;;2.00;;
69327;SDS011;56472;52.114;5.492;2022-07-23T02:41:44;2.03;;;1.80;;
69327;SDS011;56472;52.114;5.492;2022-07-23T02:44:11;1.80;;;1.70;;
69327;SDS011;56472;52.114;5.492;2022-07-23T02:46:41;1.00;;;1.00;;
69327;SDS011;56472;52.114;5.492;2022-07-23T02:49:08;0.80;;;0.80;;
69327;SDS011;56472;52.114;5.492;2022-07-23T02:51:36;3.15;;;1.42;;
69327;SDS011;56472;52.114;5.492;2022-07-23T02:54:05;2.05;;;1.50;;
69327;SDS011;56472;52.114;5.492;2022-07-23T02:56:33;1.80;;;1.70;;
69327;SDS011;56472;52.114;5.492;2022-07-23T02:59:00;150.82;;;3.20;;
69327;SDS011;56472;52.114;5.492;2022-07-23T03:01:28;58.17;;;3.13;;
69327;SDS011;56472;52.114;5.492;2022-07-23T03:03:56;1.70;;;1.52;;
69327;SDS011;56472;52.114;5.492;2022-07-23T03:06:23;1.50;;;1.40;;
69327;SDS011;56472;52.114;5.492;2022-07-23T03:08:50;2.10;;;2.00;;
69327;SDS011;56472;52.114;5.492;2022-07-23T03:11:18;2.28;;;2.17;;
69327;SDS011;56472;52.114;5.492;2022-07-23T03:13:47;2.95;;;2.70;;
69327;SDS011;56472;52.114;5.492;2022-07-23T03:16:15;3.60;;;3.40;;
69327;SDS011;56472;52.114;5.492;2022-07-23T03:18:42;92.47;;;3.80;;
69327;SDS011;56472;52.114;5.492;2022-07-23T03:21:09;4.63;;;1.65;;
69327;SDS011;56472;52.114;5.492;2022-07-23T03:23:37;0.80;;;0.80;;
69327;SDS011;56472;52.114;5.492;2022-07-23T03:26:04;0.73;;;0.73;;
69327;SDS011;56472;52.114;5.492;2022-07-23T03:28:31;1.63;;;1.52;;
69327;SDS011;56472;52.114;5.492;2022-07-23T03:30:59;3.00;;;2.58;;
69327;SDS011;56472;52.114;5.492;2022-07-23T03:33:26;2.28;;;2.17;;
69327;SDS011;56472;52.114;5.492;2022-07-23T03:35:53;2.85;;;2.60;;
69327;SDS011;56472;52.114;5.492;2022-07-23T03:38:27;2.67;;;2.47;;
69327;SDS011;56472;52.114;5.492;2022-07-23T03:40:54;8.23;;;2.40;;
69327;SDS011;56472;52.114;5.492;2022-07-23T03:43:21;4.45;;;3.13;;
69327;SDS011;56472;52.114;5.492;2022-07-23T03:45:52;4.93;;;2.67;;
69327;SDS011;56472;52.114;5.492;2022-07-23T03:48:19;6.00;;;3.40;;
69327;SDS011;56472;52.114;5.492;2022-07-23T03:50:46;2.05;;;1.20;;
69327;SDS011;56472;52.114;5.492;2022-07-23T03:53:14;1.50;;;1.27;;
69327;SDS011;56472;52.114;5.492;2022-07-23T03:55:41;1.15;;;1.15;;
69327;SDS011;56472;52.114;5.492;2022-07-23T03:58:08;10.75;;;1.70;;
69327;SDS011;56472;52.114;5.492;2022-07-23T04:00:35;2.63;;;1.27;;
69327;SDS011;56472;52.114;5.492;2022-07-23T04:03:04;1.88;;;1.13;;
69327;SDS011;56472;52.114;5.492;2022-07-23T04:05:32;2.22;;;2.13;;
69327;SDS011;56472;52.114;5.492;2022-07-23T04:08:05;3.75;;;1.88;;
69327;SDS011;56472;52.114;5.492;2022-07-23T04:13:28;2.75;;;2.38;;
69327;SDS011;56472;52.114;5.492;2022-07-23T04:15:55;4.10;;;2.70;;
69327;SDS011;56472;52.114;5.492;2022-07-23T04:18:23;4.07;;;2.65;;
69327;SDS011;56472;52.114;5.492;2022-07-23T04:21:00;3.20;;;2.88;;
69327;SDS011;56472;52.114;5.492;2022-07-23T04:23:28;4.25;;;3.00;;
69327;SDS011;56472;52.114;5.492;2022-07-23T04:25:55;10.13;;;2.85;;
69327;SDS011;56472;52.114;5.492;2022-07-23T04:28:23;3.15;;;2.85;;
69327;SDS011;56472;52.114;5.492;2022-07-23T04:30:51;2.83;;;2.60;;
69327;SDS011;56472;52.114;5.492;2022-07-23T04:33:19;3.20;;;2.90;;
69327;SDS011;56472;52.114;5.492;2022-07-23T04:35:49;4.32;;;2.53;;
69327;SDS011;56472;52.114;5.492;2022-07-23T04:38:19;2.53;;;2.17;;
69327;SDS011;56472;52.114;5.492;2022-07-23T04:40:48;4.60;;;2.65;;
69327;SDS011;56472;52.114;5.492;2022-07-23T04:43:16;2.90;;;2.70;;
69327;SDS011;56472;52.114;5.492;2022-07-23T04:45:46;3.10;;;2.90;;
69327;SDS011;56472;52.114;5.492;2022-07-23T04:48:13;8.10;;;2.95;;
69327;SDS011;56472;52.114;5.492;2022-07-23T04:50:42;11.70;;;3.20;;
69327;SDS011;56472;52.114;5.492;2022-07-23T04:53:23;4.70;;;3.40;;
69327;SDS011;56472;52.114;5.492;2022-07-23T04:55:53;6.50;;;3.40;;
69327;SDS011;56472;52.114;5.492;2022-07-23T04:58:21;6.55;;;4.32;;
69327;SDS011;56472;52.114;5.492;2022-07-23T05:00:48;8.27;;;3.45;;
69327;SDS011;56472;52.114;5.492;2022-07-23T05:03:16;8.10;;;3.40;;
69327;SDS011;56472;52.114;5.492;2022-07-23T05:05:45;7.72;;;3.72;;
69327;SDS011;56472;52.114;5.492;2022-07-23T05:08:15;7.45;;;3.63;;
69327;SDS011;56472;52.114;5.492;2022-07-23T05:10:48;5.82;;;3.90;;
69327;SDS011;56472;52.114;5.492;2022-07-23T05:13:16;7.05;;;3.85;;
69327;SDS011;56472;52.114;5.492;2022-07-23T05:15:44;12.35;;;3.60;;
69327;SDS011;56472;52.114;5.492;2022-07-23T05:18:12;4.53;;;3.58;;
69327;SDS011;56472;52.114;5.492;2022-07-23T05:20:40;5.57;;;3.35;;
69327;SDS011;56472;52.114;5.492;2022-07-23T05:23:08;8.35;;;3.80;;
69327;SDS011;56472;52.114;5.492;2022-07-23T05:25:36;9.60;;;4.70;;
69327;SDS011;56472;52.114;5.492;2022-07-23T05:28:03;5.30;;;3.90;;
69327;SDS011;56472;52.114;5.492;2022-07-23T05:30:31;5.93;;;3.63;;
69327;SDS011;56472;52.114;5.492;2022-07-23T05:33:01;4.75;;;3.75;;
69327;SDS011;56472;52.114;5.492;2022-07-23T05:35:28;9.88;;;4.93;;
69327;SDS011;56472;52.114;5.492;2022-07-23T05:38:16;9.27;;;4.40;;
69327;SDS011;56472;52.114;5.492;2022-07-23T05:40:43;9.00;;;5.28;;
69327;SDS011;56472;52.114;5.492;2022-07-23T05:43:11;7.60;;;4.40;;
69327;SDS011;56472;52.114;5.492;2022-07-23T05:45:38;8.30;;;3.83;;
69327;SDS011;56472;52.114;5.492;2022-07-23T05:48:06;7.57;;;4.18;;
69327;SDS011;56472;52.114;5.492;2022-07-23T05:50:41;11.35;;;5.95;;
69327;SDS011;56472;52.114;5.492;2022-07-23T05:53:21;10.60;;;6.40;;
69327;SDS011;56472;52.114;5.492;2022-07-23T05:56:18;7.68;;;5.47;;
69327;SDS011;56472;52.114;5.492;2022-07-23T05:58:45;12.63;;;6.25;;
69327;SDS011;56472;52.114;5.492;2022-07-23T06:01:15;10.32;;;5.88;;
69327;SDS011;56472;52.114;5.492;2022-07-23T06:03:52;11.32;;;5.88;;
69327;SDS011;56472;52.114;5.492;2022-07-23T06:06:22;6.93;;;4.78;;
69327;SDS011;56472;52.114;5.492;2022-07-23T06:08:49;6.22;;;5.40;;
69327;SDS011;56472;52.114;5.492;2022-07-23T06:11:17;6.10;;;5.30;;
69327;SDS011;56472;52.114;5.492;2022-07-23T06:13:44;4.68;;;4.20;;
69327;SDS011;56472;52.114;5.492;2022-07-23T06:16:12;9.82;;;4.75;;
69327;SDS011;56472;52.114;5.492;2022-07-23T06:18:39;8.02;;;4.97;;
69327;SDS011;56472;52.114;5.492;2022-07-23T06:21:07;5.03;;;4.50;;
69327;SDS011;56472;52.114;5.492;2022-07-23T06:23:56;7.80;;;4.80;;
69327;SDS011;56472;52.114;5.492;2022-07-23T06:26:24;7.47;;;4.18;;
69327;SDS011;56472;52.114;5.492;2022-07-23T06:28:51;7.50;;;4.38;;
69327;SDS011;56472;52.114;5.492;2022-07-23T06:31:18;7.10;;;4.13;;
69327;SDS011;56472;52.114;5.492;2022-07-23T06:33:45;4.90;;;4.43;;
69327;SDS011;56472;52.114;5.492;2022-07-23T06:36:13;8.68;;;4.43;;
69327;SDS011;56472;52.114;5.492;2022-07-23T06:38:40;4.50;;;3.40;;
69327;SDS011;56472;52.114;5.492;2022-07-23T06:41:09;10.70;;;3.55;;
69327;SDS011;56472;52.114;5.492;2022-07-23T06:43:36;5.05;;;3.20;;
69327;SDS011;56472;52.114;5.492;2022-07-23T06:46:07;5.97;;;3.78;;
69327;SDS011;56472;52.114;5.492;2022-07-23T06:48:34;6.35;;;3.65;;
69327;SDS011;56472;52.114;5.492;2022-07-23T06:51:02;16.67;;;3.80;;
69327;SDS011;56472;52.114;5.492;2022-07-23T06:53:30;6.82;;;3.50;;
69327;SDS011;56472;52.114;5.492;2022-07-23T06:55:57;5.32;;;3.17;;
69327;SDS011;56472;52.114;5.492;2022-07-23T06:58:25;3.58;;;3.25;;
69327;SDS011;56472;52.114;5.492;2022-07-23T07:00:52;8.48;;;3.20;;
69327;SDS011;56472;52.114;5.492;2022-07-23T07:03:19;5.00;;;3.22;;
69327;SDS011;56472;52.114;5.492;2022-07-23T07:05:46;3.65;;;3.20;;
69327;SDS011;56472;52.114;5.492;2022-07-23T07:08:14;4.72;;;3.42;;
69327;SDS011;56472;52.114;5.492;2022-07-23T07:10:41;3.15;;;2.95;;
69327;SDS011;56472;52.114;5.492;2022-07-23T07:13:08;10.05;;;3.08;;
69327;SDS011;56472;52.114;5.492;2022-07-23T07:15:36;9.18;;;3.28;;
69327;SDS011;56472;52.114;5.492;2022-07-23T07:18:03;3.38;;;2.80;;
69327;SDS011;56472;52.114;5.492;2022-07-23T07:20:30;5.57;;;2.97;;
69327;SDS011;56472;52.114;5.492;2022-07-23T07:22:58;2.50;;;1.88;;
69327;SDS011;56472;52.114;5.492;2022-07-23T07:25:25;5.10;;;2.10;;
69327;SDS011;56472;52.114;5.492;2022-07-23T07:27:52;4.25;;;1.50;;
69327;SDS011;56472;52.114;5.492;2022-07-23T07:30:20;2.33;;;1.80;;
69327;SDS011;56472;52.114;5.492;2022-07-23T07:32:47;5.32;;;2.05;;
69327;SDS011;56472;52.114;5.492;2022-07-23T07:35:23;7.47;;;2.90;;
69327;SDS011;56472;52.114;5.492;2022-07-23T07:37:51;7.28;;;3.42;;
69327;SDS011;56472;52.114;5.492;2022-07-23T07:40:18;5.97;;;2.88;;
69327;SDS011;56472;52.114;5.492;2022-07-23T07:42:47;8.98;;;3.00;;
69327;SDS011;56472;52.114;5.492;2022-07-23T07:45:14;3.78;;;2.92;;
69327;SDS011;56472;52.114;5.492;2022-07-23T07:47:42;3.40;;;2.90;;
69327;SDS011;56472;52.114;5.492;2022-07-23T07:50:09;4.03;;;3.08;;
69327;SDS011;56472;52.114;5.492;2022-07-23T07:52:37;4.05;;;3.13;;
69327;SDS011;56472;52.114;5.492;2022-07-23T07:55:06;5.60;;;3.60;;
69327;SDS011;56472;52.114;5.492;2022-07-23T07:57:34;4.57;;;3.03;;
69327;SDS011;56472;52.114;5.492;2022-07-23T08:00:03;6.07;;;3.33;;
69327;SDS011;56472;52.114;5.492;2022-07-23T08:02:44;5.47;;;2.97;;
69327;SDS011;56472;52.114;5.492;2022-07-23T08:05:12;5.15;;;3.00;;
69327;SDS011;56472;52.114;5.492;2022-07-23T08:07:40;4.55;;;2.97;;
69327;SDS011;56472;52.114;5.492;2022-07-23T08:10:08;4.45;;;2.60;;
69327;SDS011;56472;52.114;5.492;2022-07-23T08:15:11;3.90;;;2.00;;
69327;SDS011;56472;52.114;5.492;2022-07-23T08:17:40;1.98;;;1.63;;
69327;SDS011;56472;52.114;5.492;2022-07-23T08:20:08;10.30;;;2.10;;
69327;SDS011;56472;52.114;5.492;2022-07-23T08:22:43;7.82;;;2.08;;
69327;SDS011;56472;52.114;5.492;2022-07-23T08:25:10;7.82;;;2.47;;
69327;SDS011;56472;52.114;5.492;2022-07-23T08:27:38;4.03;;;2.10;;
69327;SDS011;56472;52.114;5.492;2022-07-23T08:30:05;4.28;;;2.08;;
69327;SDS011;56472;52.114;5.492;2022-07-23T08:32:33;3.13;;;1.88;;
69327;SDS011;56472;52.114;5.492;2022-07-23T08:35:10;4.38;;;2.00;;
69327;SDS011;56472;52.114;5.492;2022-07-23T08:37:38;3.05;;;1.88;;
69327;SDS011;56472;52.114;5.492;2022-07-23T08:40:05;3.58;;;2.00;;
69327;SDS011;56472;52.114;5.492;2022-07-23T08:42:32;3.92;;;2.00;;
69327;SDS011;56472;52.114;5.492;2022-07-23T08:45:03;5.75;;;2.22;;
69327;SDS011;56472;52.114;5.492;2022-07-23T08:47:31;4.90;;;2.20;;
69327;SDS011;56472;52.114;5.492;2022-07-23T08:49:58;5.28;;;2.42;;
69327;SDS011;56472;52.114;5.492;2022-07-23T08:52:26;5.53;;;2.28;;
69327;SDS011;56472;52.114;5.492;2022-07-23T08:54:53;3.05;;;2.20;;
69327;SDS011;56472;52.114;5.492;2022-07-23T08:57:21;8.75;;;2.25;;
69327;SDS011;56472;52.114;5.492;2022-07-23T08:59:49;4.70;;;2.00;;
69327;SDS011;56472;52.114;5.492;2022-07-23T09:02:16;3.83;;;2.20;;
69327;SDS011;56472;52.114;5.492;2022-07-23T09:04:44;2.85;;;2.35;;
69327;SDS011;56472;52.114;5.492;2022-07-23T09:07:11;3.60;;;1.95;;
69327;SDS011;56472;52.114;5.492;2022-07-23T09:09:38;6.13;;;2.13;;
69327;SDS011;56472;52.114;5.492;2022-07-23T09:12:07;4.30;;;2.10;;
69327;SDS011;56472;52.114;5.492;2022-07-23T09:17:11;3.33;;;2.15;;
69327;SDS011;56472;52.114;5.492;2022-07-23T09:19:40;3.75;;;1.92;;
69327;SDS011;56472;52.114;5.492;2022-07-23T09:22:24;3.85;;;2.20;;
69327;SDS011;56472;52.114;5.492;2022-07-23T09:25:11;4.85;;;1.73;;
69327;SDS011;56472;52.114;5.492;2022-07-23T09:30:24;4.93;;;2.25;;
69327;SDS011;56472;52.114;5.492;2022-07-23T09:33:04;3.25;;;1.92;;
69327;SDS011;56472;52.114;5.492;2022-07-23T09:35:53;2.90;;;1.70;;
69327;SDS011;56472;52.114;5.492;2022-07-23T09:38:20;1.60;;;1.50;;
69327;SDS011;56472;52.114;5.492;2022-07-23T09:43:34;2.33;;;1.70;;
69327;SDS011;56472;52.114;5.492;2022-07-23T09:46:21;2.30;;;1.50;;
69327;SDS011;56472;52.114;5.492;2022-07-23T09:48:50;4.78;;;1.45;;
69327;SDS011;56472;52.114;5.492;2022-07-23T09:51:19;1.90;;;1.55;;
69327;SDS011;56472;52.114;5.492;2022-07-23T09:53:55;4.68;;;2.03;;
69327;SDS011;56472;52.114;5.492;2022-07-23T09:56:23;2.90;;;1.92;;
69327;SDS011;56472;52.114;5.492;2022-07-23T09:58:53;2.50;;;2.10;;
69327;SDS011;56472;52.114;5.492;2022-07-23T10:01:56;3.67;;;1.70;;
69327;SDS011;56472;52.114;5.492;2022-07-23T10:04:26;7.45;;;2.08;;
69327;SDS011;56472;52.114;5.492;2022-07-23T10:07:12;6.65;;;2.30;;
69327;SDS011;56472;52.114;5.492;2022-07-23T10:09:59;1.80;;;1.63;;
69327;SDS011;56472;52.114;5.492;2022-07-23T10:12:38;4.07;;;1.80;;
69327;SDS011;56472;52.114;5.492;2022-07-23T10:15:17;1.92;;;1.83;;
69327;SDS011;56472;52.114;5.492;2022-07-23T10:17:46;2.55;;;1.70;;
69327;SDS011;56472;52.114;5.492;2022-07-23T10:20:15;4.97;;;2.25;;
69327;SDS011;56472;52.114;5.492;2022-07-23T10:22:44;4.50;;;2.05;;
69327;SDS011;56472;52.114;5.492;2022-07-23T10:25:18;3.78;;;1.60;;
69327;SDS011;56472;52.114;5.492;2022-07-23T10:33:04;4.95;;;2.05;;
69327;SDS011;56472;52.114;5.492;2022-07-23T10:38:27;5.97;;;1.55;;
69327;SDS011;56472;52.114;5.492;2022-07-23T10:41:02;4.13;;;1.67;;
69327;SDS011;56472;52.114;5.492;2022-07-23T10:43:30;2.50;;;1.45;;
69327;SDS011;56472;52.114;5.492;2022-07-23T10:46:20;2.63;;;1.42;;
69327;SDS011;56472;52.114;5.492;2022-07-23T10:48:45;6.03;;;2.15;;
69327;SDS011;56472;52.114;5.492;2022-07-23T10:51:14;2.28;;;1.63;;
69327;SDS011;56472;52.114;5.492;2022-07-23T10:59:04;3.15;;;1.48;;
69327;SDS011;56472;52.114;5.492;2022-07-23T11:01:36;2.88;;;1.40;;
69327;SDS011;56472;52.114;5.492;2022-07-23T11:17:31;5.43;;;1.92;;
69327;SDS011;56472;52.114;5.492;2022-07-23T11:25:12;3.58;;;1.52;;
69327;SDS011;56472;52.114;5.492;2022-07-23T11:27:41;3.80;;;1.42;;
69327;SDS011;56472;52.114;5.492;2022-07-23T11:30:09;5.47;;;1.50;;
69327;SDS011;56472;52.114;5.492;2022-07-23T11:32:38;4.05;;;1.63;;
69327;SDS011;56472;52.114;5.492;2022-07-23T11:35:18;3.58;;;1.70;;
69327;SDS011;56472;52.114;5.492;2022-07-23T11:37:47;4.72;;;1.70;;
69327;SDS011;56472;52.114;5.492;2022-07-23T11:40:15;1.60;;;1.50;;
69327;SDS011;56472;52.114;5.492;2022-07-23T11:42:51;2.97;;;1.33;;
69327;SDS011;56472;52.114;5.492;2022-07-23T11:45:18;2.97;;;1.80;;
69327;SDS011;56472;52.114;5.492;2022-07-23T11:47:46;6.03;;;1.50;;
69327;SDS011;56472;52.114;5.492;2022-07-23T11:50:13;2.03;;;1.70;;
69327;SDS011;56472;52.114;5.492;2022-07-23T11:52:40;4.15;;;1.55;;
69327;SDS011;56472;52.114;5.492;2022-07-23T11:55:09;1.98;;;1.60;;
69327;SDS011;56472;52.114;5.492;2022-07-23T11:57:40;2.28;;;1.70;;
69327;SDS011;56472;52.114;5.492;2022-07-23T12:02:44;5.40;;;1.75;;
69327;SDS011;56472;52.114;5.492;2022-07-23T12:05:15;2.00;;;1.40;;
69327;SDS011;56472;52.114;5.492;2022-07-23T12:07:43;1.45;;;1.30;;
69327;SDS011;56472;52.114;5.492;2022-07-23T12:10:13;3.30;;;1.40;;
69327;SDS011;56472;52.114;5.492;2022-07-23T12:12:42;1.85;;;1.35;;
69327;SDS011;56472;52.114;5.492;2022-07-23T12:15:10;2.92;;;1.40;;
69327;SDS011;56472;52.114;5.492;2022-07-23T12:17:39;11.13;;;1.27;;
69327;SDS011;56472;52.114;5.492;2022-07-23T12:20:07;5.22;;;1.40;;
69327;SDS011;56472;52.114;5.492;2022-07-23T12:22:39;2.28;;;1.55;;
69327;SDS011;56472;52.114;5.492;2022-07-23T12:25:10;3.90;;;1.60;;
69327;SDS011;56472;52.114;5.492;2022-07-23T12:27:38;5.35;;;1.40;;
69327;SDS011;56472;52.114;5.492;2022-07-23T12:30:15;1.65;;;1.20;;
69327;SDS011;56472;52.114;5.492;2022-07-23T12:32:44;3.00;;;1.42;;
69327;SDS011;56472;52.114;5.492;2022-07-23T12:35:12;2.90;;;1.63;;
69327;SDS011;56472;52.114;5.492;2022-07-23T12:37:41;1.48;;;1.35;;
69327;SDS011;56472;52.114;5.492;2022-07-23T12:40:29;2.90;;;1.58;;
69327;SDS011;56472;52.114;5.492;2022-07-23T12:42:58;2.10;;;1.30;;
69327;SDS011;56472;52.114;5.492;2022-07-23T12:45:27;1.98;;;1.40;;
69327;SDS011;56472;52.114;5.492;2022-07-23T12:53:03;4.63;;;1.58;;
69327;SDS011;56472;52.114;5.492;2022-07-23T12:55:30;1.40;;;1.30;;
69327;SDS011;56472;52.114;5.492;2022-07-23T12:58:19;2.55;;;1.67;;
69327;SDS011;56472;52.114;5.492;2022-07-23T13:00:50;1.42;;;1.33;;
69327;SDS011;56472;52.114;5.492;2022-07-23T13:05:45;3.30;;;1.52;;
69327;SDS011;56472;52.114;5.492;2022-07-23T13:08:12;3.97;;;1.90;;
69327;SDS011;56472;52.114;5.492;2022-07-23T13:10:41;2.70;;;1.30;;
69327;SDS011;56472;52.114;5.492;2022-07-23T13:13:12;2.03;;;1.50;;
69327;SDS011;56472;52.114;5.492;2022-07-23T13:15:59;4.93;;;1.52;;
69327;SDS011;56472;52.114;5.492;2022-07-23T13:18:27;1.40;;;1.30;;
69327;SDS011;56472;52.114;5.492;2022-07-23T13:20:55;5.82;;;1.90;;
69327;SDS011;56472;52.114;5.492;2022-07-23T13:23:23;1.85;;;1.27;;
69327;SDS011;56472;52.114;5.492;2022-07-23T13:25:51;2.08;;;1.63;;
69327;SDS011;56472;52.114;5.492;2022-07-23T13:28:20;10.70;;;1.52;;
69327;SDS011;56472;52.114;5.492;2022-07-23T13:30:48;3.88;;;1.50;;
69327;SDS011;56472;52.114;5.492;2022-07-23T13:33:17;3.63;;;1.38;;
69327;SDS011;56472;52.114;5.492;2022-07-23T13:35:45;1.85;;;1.30;;
69327;SDS011;56472;52.114;5.492;2022-07-23T13:38:13;2.20;;;1.42;;
69327;SDS011;56472;52.114;5.492;2022-07-23T13:40:44;1.90;;;1.40;;
69327;SDS011;56472;52.114;5.492;2022-07-23T13:43:14;7.82;;;1.48;;
69327;SDS011;56472;52.114;5.492;2022-07-23T13:45:48;3.80;;;2.10;;
69327;SDS011;56472;52.114;5.492;2022-07-23T13:48:15;1.40;;;1.30;;
69327;SDS011;56472;52.114;5.492;2022-07-23T13:50:43;1.80;;;1.38;;
69327;SDS011;56472;52.114;5.492;2022-07-23T13:53:12;1.88;;;1.23;;
69327;SDS011;56472;52.114;5.492;2022-07-23T13:55:40;3.47;;;1.77;;
69327;SDS011;56472;52.114;5.492;2022-07-23T13:58:14;6.05;;;1.60;;
69327;SDS011;56472;52.114;5.492;2022-07-23T14:00:43;2.42;;;1.50;;
69327;SDS011;56472;52.114;5.492;2022-07-23T14:03:31;4.32;;;1.65;;
69327;SDS011;56472;52.114;5.492;2022-07-23T14:05:59;1.75;;;1.42;;
69327;SDS011;56472;52.114;5.492;2022-07-23T14:08:26;2.08;;;1.60;;
69327;SDS011;56472;52.114;5.492;2022-07-23T14:10:55;1.88;;;1.33;;
69327;SDS011;56472;52.114;5.492;2022-07-23T14:13:25;2.72;;;1.63;;
69327;SDS011;56472;52.114;5.492;2022-07-23T14:15:52;3.50;;;1.60;;
69327;SDS011;56472;52.114;5.492;2022-07-23T14:18:20;2.05;;;1.75;;
69327;SDS011;56472;52.114;5.492;2022-07-23T14:20:48;3.42;;;1.95;;
69327;SDS011;56472;52.114;5.492;2022-07-23T14:23:15;1.70;;;1.60;;
69327;SDS011;56472;52.114;5.492;2022-07-23T14:25:42;4.15;;;1.52;;
69327;SDS011;56472;52.114;5.492;2022-07-23T14:28:12;2.72;;;1.75;;
69327;SDS011;56472;52.114;5.492;2022-07-23T14:30:39;2.03;;;1.48;;
69327;SDS011;56472;52.114;5.492;2022-07-23T14:33:10;3.83;;;1.33;;
69327;SDS011;56472;52.114;5.492;2022-07-23T14:35:40;2.67;;;1.40;;
69327;SDS011;56472;52.114;5.492;2022-07-23T14:38:08;4.60;;;1.90;;
69327;SDS011;56472;52.114;5.492;2022-07-23T14:40:39;2.80;;;1.60;;
69327;SDS011;56472;52.114;5.492;2022-07-23T14:43:06;2.72;;;1.60;;
69327;SDS011;56472;52.114;5.492;2022-07-23T14:45:36;1.88;;;1.50;;
69327;SDS011;56472;52.114;5.492;2022-07-23T14:48:03;2.47;;;1.92;;
69327;SDS011;56472;52.114;5.492;2022-07-23T14:50:30;5.15;;;1.48;;
69327;SDS011;56472;52.114;5.492;2022-07-23T14:52:58;2.08;;;1.50;;
69327;SDS011;56472;52.114;5.492;2022-07-23T14:55:25;1.80;;;1.63;;
69327;SDS011;56472;52.114;5.492;2022-07-23T14:57:52;2.55;;;1.30;;
69327;SDS011;56472;52.114;5.492;2022-07-23T15:00:20;2.40;;;1.70;;
69327;SDS011;56472;52.114;5.492;2022-07-23T15:02:49;2.30;;;1.42;;
69327;SDS011;56472;52.114;5.492;2022-07-23T15:05:20;2.72;;;1.88;;
69327;SDS011;56472;52.114;5.492;2022-07-23T15:07:47;4.70;;;1.83;;
69327;SDS011;56472;52.114;5.492;2022-07-23T15:10:15;1.80;;;1.70;;
69327;SDS011;56472;52.114;5.492;2022-07-23T15:12:45;6.18;;;1.60;;
69327;SDS011;56472;52.114;5.492;2022-07-23T15:15:13;4.13;;;1.48;;
69327;SDS011;56472;52.114;5.492;2022-07-23T15:17:41;1.88;;;1.70;;
69327;SDS011;56472;52.114;5.492;2022-07-23T15:20:09;9.25;;;1.60;;
69327;SDS011;56472;52.114;5.492;2022-07-23T15:22:40;10.07;;;1.70;;
69327;SDS011;56472;52.114;5.492;2022-07-23T15:25:08;2.00;;;1.70;;
69327;SDS011;56472;52.114;5.492;2022-07-23T15:27:38;2.95;;;1.40;;
69327;SDS011;56472;52.114;5.492;2022-07-23T15:30:05;1.80;;;1.40;;
69327;SDS011;56472;52.114;5.492;2022-07-23T15:32:34;1.58;;;1.48;;
69327;SDS011;56472;52.114;5.492;2022-07-23T15:35:01;5.45;;;1.67;;
69327;SDS011;56472;52.114;5.492;2022-07-23T15:37:31;3.55;;;1.70;;
69327;SDS011;56472;52.114;5.492;2022-07-23T15:40:00;3.05;;;1.67;;
69327;SDS011;56472;52.114;5.492;2022-07-23T15:42:30;3.03;;;1.70;;
69327;SDS011;56472;52.114;5.492;2022-07-23T15:44:58;2.50;;;1.40;;
69327;SDS011;56472;52.114;5.492;2022-07-23T15:47:25;2.05;;;1.73;;
69327;SDS011;56472;52.114;5.492;2022-07-23T15:49:53;1.95;;;1.65;;
69327;SDS011;56472;52.114;5.492;2022-07-23T15:52:21;1.50;;;1.40;;
69327;SDS011;56472;52.114;5.492;2022-07-23T15:54:49;2.65;;;1.60;;
69327;SDS011;56472;52.114;5.492;2022-07-23T15:57:16;5.63;;;1.85;;